sensor_id;sensor_type;location;lat;lon;timestamp;pressure;altitude;pressure_sealevel;temperature;humidity
51289;BME280;37372;52.294;5.152;2023-04-20T00:00:15;102498.50;;;6.48;50.50
51289;BME280;37372;52.294;5.152;2023-04-20T00:02:47;102500.19;;;6.49;50.79
51289;BME280;37372;52.294;5.152;2023-04-20T00:05:13;102496.41;;;6.42;51.70
51289;BME280;37372;52.294;5.152;2023-04-20T00:07:39;102492.34;;;6.38;51.26
51289;BME280;37372;52.294;5.152;2023-04-20T00:10:07;102485.50;;;6.34;51.22
51289;BME280;37372;52.294;5.152;2023-04-20T00:12:33;102483.41;;;6.28;51.51
51289;BME280;37372;52.294;5.152;2023-04-20T00:14:59;102474.56;;;6.26;51.11
51289;BME280;37372;52.294;5.152;2023-04-20T00:17:24;102464.63;;;6.24;52.21
51289;BME280;37372;52.294;5.152;2023-04-20T00:19:50;102467.38;;;6.24;51.62
51289;BME280;37372;52.294;5.152;2023-04-20T00:22:16;102467.75;;;6.30;52.63
51289;BME280;37372;52.294;5.152;2023-04-20T00:24:42;102461.63;;;6.36;51.58
51289;BME280;37372;52.294;5.152;2023-04-20T00:27:08;102456.53;;;6.33;51.21
51289;BME280;37372;52.294;5.152;2023-04-20T00:29:33;102455.88;;;6.39;51.30
51289;BME280;37372;52.294;5.152;2023-04-20T00:31:58;102450.38;;;6.31;52.27
51289;BME280;37372;52.294;5.152;2023-04-20T00:34:24;102450.38;;;6.31;51.42
51289;BME280;37372;52.294;5.152;2023-04-20T00:36:52;102445.44;;;6.26;53.86
51289;BME280;37372;52.294;5.152;2023-04-20T00:39:18;102436.06;;;6.29;52.47
51289;BME280;37372;52.294;5.152;2023-04-20T00:41:47;102429.22;;;6.24;53.15
51289;BME280;37372;52.294;5.152;2023-04-20T00:44:16;102428.16;;;6.17;53.61
51289;BME280;37372;52.294;5.152;2023-04-20T00:46:41;102422.88;;;6.16;55.29
51289;BME280;37372;52.294;5.152;2023-04-20T00:49:07;102419.13;;;6.17;54.15
51289;BME280;37372;52.294;5.152;2023-04-20T00:51:34;102409.66;;;6.29;53.82
51289;BME280;37372;52.294;5.152;2023-04-20T00:54:01;102403.06;;;6.40;53.84
51289;BME280;37372;52.294;5.152;2023-04-20T00:56:26;102398.63;;;6.39;53.75
51289;BME280;37372;52.294;5.152;2023-04-20T00:58:52;102394.22;;;6.38;54.64
51289;BME280;37372;52.294;5.152;2023-04-20T01:01:17;102387.38;;;6.34;55.01
51289;BME280;37372;52.294;5.152;2023-04-20T01:03:47;102385.66;;;6.33;55.86
51289;BME280;37372;52.294;5.152;2023-04-20T01:06:18;102380.53;;;6.30;55.17
51289;BME280;37372;52.294;5.152;2023-04-20T01:08:46;102375.81;;;6.48;54.91
51289;BME280;37372;52.294;5.152;2023-04-20T01:11:12;102375.13;;;6.38;55.54
51289;BME280;37372;52.294;5.152;2023-04-20T01:13:38;102374.25;;;6.37;56.63
51289;BME280;37372;52.294;5.152;2023-04-20T01:16:04;102368.13;;;6.35;56.98
51289;BME280;37372;52.294;5.152;2023-04-20T01:18:40;102367.94;;;6.29;57.06
51289;BME280;37372;52.294;5.152;2023-04-20T01:21:06;102363.34;;;6.37;56.65
51289;BME280;37372;52.294;5.152;2023-04-20T01:23:34;102357.09;;;6.45;56.81
51289;BME280;37372;52.294;5.152;2023-04-20T01:25:59;102355.22;;;6.54;57.23
51289;BME280;37372;52.294;5.152;2023-04-20T01:28:30;102349.94;;;6.52;57.19
51289;BME280;37372;52.294;5.152;2023-04-20T01:30:56;102347.03;;;6.45;58.18
51289;BME280;37372;52.294;5.152;2023-04-20T01:33:22;102339.53;;;6.39;59.43
51289;BME280;37372;52.294;5.152;2023-04-20T01:35:47;102344.66;;;6.50;59.40
51289;BME280;37372;52.294;5.152;2023-04-20T01:38:20;102336.13;;;6.62;58.78
51289;BME280;37372;52.294;5.152;2023-04-20T01:40:49;102321.16;;;6.66;59.54
51289;BME280;37372;52.294;5.152;2023-04-20T01:43:16;102327.78;;;6.55;60.12
51289;BME280;37372;52.294;5.152;2023-04-20T01:45:41;102323.72;;;6.59;59.83
51289;BME280;37372;52.294;5.152;2023-04-20T01:48:11;102325.41;;;6.68;60.04
51289;BME280;37372;52.294;5.152;2023-04-20T01:50:37;102320.13;;;6.75;60.43
51289;BME280;37372;52.294;5.152;2023-04-20T01:53:09;102316.22;;;6.86;60.44
51289;BME280;37372;52.294;5.152;2023-04-20T01:55:34;102322.38;;;6.96;60.65
51289;BME280;37372;52.294;5.152;2023-04-20T01:58:13;102306.50;;;6.99;60.59
51289;BME280;37372;52.294;5.152;2023-04-20T02:00:38;102316.56;;;6.99;60.73
51289;BME280;37372;52.294;5.152;2023-04-20T02:03:16;102309.06;;;7.01;60.33
51289;BME280;37372;52.294;5.152;2023-04-20T02:05:42;102302.75;;;7.00;60.44
51289;BME280;37372;52.294;5.152;2023-04-20T02:08:12;102298.84;;;7.03;61.02
51289;BME280;37372;52.294;5.152;2023-04-20T02:10:38;102299.66;;;7.12;60.90
51289;BME280;37372;52.294;5.152;2023-04-20T02:13:03;102286.31;;;7.33;59.52
51289;BME280;37372;52.294;5.152;2023-04-20T02:15:30;102289.75;;;7.35;59.03
51289;BME280;37372;52.294;5.152;2023-04-20T02:17:56;102284.59;;;7.40;58.88
51289;BME280;37372;52.294;5.152;2023-04-20T02:20:22;102285.28;;;7.42;58.47
51289;BME280;37372;52.294;5.152;2023-04-20T02:22:48;102280.16;;;7.39;59.59
51289;BME280;37372;52.294;5.152;2023-04-20T02:25:14;102272.81;;;7.40;59.39
51289;BME280;37372;52.294;5.152;2023-04-20T02:27:42;102266.16;;;7.50;58.72
51289;BME280;37372;52.294;5.152;2023-04-20T02:30:09;102273.16;;;7.45;59.57
51289;BME280;37372;52.294;5.152;2023-04-20T02:32:36;102263.28;;;7.44;58.86
51289;BME280;37372;52.294;5.152;2023-04-20T02:35:02;102264.78;;;7.46;58.56
51289;BME280;37372;52.294;5.152;2023-04-20T02:37:29;102252.00;;;7.39;59.44
51289;BME280;37372;52.294;5.152;2023-04-20T02:39:55;102256.16;;;7.35;59.85
51289;BME280;37372;52.294;5.152;2023-04-20T02:42:20;102249.31;;;7.30;60.32
51289;BME280;37372;52.294;5.152;2023-04-20T02:44:47;102249.00;;;7.17;61.37
51289;BME280;37372;52.294;5.152;2023-04-20T02:47:12;102251.41;;;7.12;62.15
51289;BME280;37372;52.294;5.152;2023-04-20T02:49:37;102242.88;;;7.15;61.78
51289;BME280;37372;52.294;5.152;2023-04-20T02:52:04;102235.00;;;7.20;62.18
51289;BME280;37372;52.294;5.152;2023-04-20T02:54:29;102230.91;;;7.24;62.93
51289;BME280;37372;52.294;5.152;2023-04-20T02:56:55;102226.81;;;7.28;63.44
51289;BME280;37372;52.294;5.152;2023-04-20T02:59:23;102226.13;;;7.35;63.63
51289;BME280;37372;52.294;5.152;2023-04-20T03:01:56;102218.41;;;7.38;64.42
51289;BME280;37372;52.294;5.152;2023-04-20T03:04:21;102209.03;;;7.41;64.65
51289;BME280;37372;52.294;5.152;2023-04-20T03:06:48;102205.22;;;7.50;65.21
51289;BME280;37372;52.294;5.152;2023-04-20T03:09:16;102206.41;;;7.55;65.42
51289;BME280;37372;52.294;5.152;2023-04-20T03:11:43;102198.22;;;7.55;65.79
51289;BME280;37372;52.294;5.152;2023-04-20T03:14:10;102190.50;;;7.59;65.61
51289;BME280;37372;52.294;5.152;2023-04-20T03:16:38;102197.31;;;7.63;65.48
51289;BME280;37372;52.294;5.152;2023-04-20T03:19:04;102190.81;;;7.64;65.21
51289;BME280;37372;52.294;5.152;2023-04-20T03:21:29;102193.53;;;7.64;64.88
51289;BME280;37372;52.294;5.152;2023-04-20T03:23:56;102193.38;;;7.66;64.86
51289;BME280;37372;52.294;5.152;2023-04-20T03:26:22;102189.63;;;7.67;64.91
51289;BME280;37372;52.294;5.152;2023-04-20T03:28:49;102178.53;;;7.68;64.04
51289;BME280;37372;52.294;5.152;2023-04-20T03:31:16;102175.78;;;7.68;64.25
51289;BME280;37372;52.294;5.152;2023-04-20T03:33:41;102180.22;;;7.69;64.25
51289;BME280;37372;52.294;5.152;2023-04-20T03:36:07;102184.31;;;7.73;64.62
51289;BME280;37372;52.294;5.152;2023-04-20T03:38:36;102175.91;;;7.75;64.78
51289;BME280;37372;52.294;5.152;2023-04-20T03:41:02;102174.22;;;7.74;65.74
51289;BME280;37372;52.294;5.152;2023-04-20T03:43:32;102178.16;;;7.71;65.63
51289;BME280;37372;52.294;5.152;2023-04-20T03:46:01;102169.75;;;7.73;65.26
51289;BME280;37372;52.294;5.152;2023-04-20T03:48:33;102170.78;;;7.72;66.31
51289;BME280;37372;52.294;5.152;2023-04-20T03:50:59;102168.25;;;7.70;66.96
51289;BME280;37372;52.294;5.152;2023-04-20T03:53:29;102163.63;;;7.71;67.36
51289;BME280;37372;52.294;5.152;2023-04-20T03:56:01;102162.44;;;7.73;65.30
51289;BME280;37372;52.294;5.152;2023-04-20T03:58:34;102173.91;;;7.69;66.92
51289;BME280;37372;52.294;5.152;2023-04-20T04:01:04;102161.09;;;7.69;66.36
51289;BME280;37372;52.294;5.152;2023-04-20T04:03:34;102160.91;;;7.71;65.85
51289;BME280;37372;52.294;5.152;2023-04-20T04:06:01;102161.94;;;7.70;66.41
51289;BME280;37372;52.294;5.152;2023-04-20T04:08:27;102152.91;;;7.69;66.60
51289;BME280;37372;52.294;5.152;2023-04-20T04:10:54;102144.72;;;7.69;66.48
51289;BME280;37372;52.294;5.152;2023-04-20T04:13:25;102139.44;;;7.68;67.38
51289;BME280;37372;52.294;5.152;2023-04-20T04:15:51;102132.44;;;7.65;67.00
51289;BME280;37372;52.294;5.152;2023-04-20T04:18:23;102133.78;;;7.69;66.82
51289;BME280;37372;52.294;5.152;2023-04-20T04:20:58;102130.88;;;7.71;67.13
51289;BME280;37372;52.294;5.152;2023-04-20T04:23:24;102133.28;;;7.66;67.05
51289;BME280;37372;52.294;5.152;2023-04-20T04:25:50;102128.66;;;7.66;67.66
51289;BME280;37372;52.294;5.152;2023-04-20T04:28:24;102124.75;;;7.69;67.31
51289;BME280;37372;52.294;5.152;2023-04-20T04:30:49;102122.19;;;7.67;67.44
51289;BME280;37372;52.294;5.152;2023-04-20T04:33:17;102119.75;;;7.72;68.52
51289;BME280;37372;52.294;5.152;2023-04-20T04:36:01;102116.00;;;7.73;68.48
51289;BME280;37372;52.294;5.152;2023-04-20T04:38:26;102116.66;;;7.75;68.44
51289;BME280;37372;52.294;5.152;2023-04-20T04:40:52;102110.38;;;7.75;67.91
51289;BME280;37372;52.294;5.152;2023-04-20T04:43:25;102116.47;;;7.77;67.55
51289;BME280;37372;52.294;5.152;2023-04-20T04:45:52;102118.88;;;7.80;66.99
51289;BME280;37372;52.294;5.152;2023-04-20T04:48:20;102107.09;;;7.79;67.07
51289;BME280;37372;52.294;5.152;2023-04-20T04:50:52;102105.38;;;7.78;63.97
51289;BME280;37372;52.294;5.152;2023-04-20T04:53:17;102101.44;;;7.81;62.49
51289;BME280;37372;52.294;5.152;2023-04-20T04:55:43;102107.75;;;7.81;62.89
51289;BME280;37372;52.294;5.152;2023-04-20T04:58:08;102110.50;;;7.81;61.06
51289;BME280;37372;52.294;5.152;2023-04-20T05:00:34;102108.78;;;7.80;60.02
51289;BME280;37372;52.294;5.152;2023-04-20T05:02:59;102097.47;;;7.83;59.20
51289;BME280;37372;52.294;5.152;2023-04-20T05:05:25;102101.25;;;7.82;58.76
51289;BME280;37372;52.294;5.152;2023-04-20T05:07:51;102090.97;;;7.84;59.19
51289;BME280;37372;52.294;5.152;2023-04-20T05:10:16;102093.91;;;7.83;59.48
51289;BME280;37372;52.294;5.152;2023-04-20T05:12:42;102092.03;;;7.83;58.81
51289;BME280;37372;52.294;5.152;2023-04-20T05:15:08;102099.75;;;7.80;59.33
51289;BME280;37372;52.294;5.152;2023-04-20T05:17:34;102101.97;;;7.76;58.00
51289;BME280;37372;52.294;5.152;2023-04-20T05:19:59;102095.47;;;7.77;58.70
51289;BME280;37372;52.294;5.152;2023-04-20T05:22:28;102082.53;;;7.71;58.34
51289;BME280;37372;52.294;5.152;2023-04-20T05:24:53;102098.59;;;7.74;59.37
51289;BME280;37372;52.294;5.152;2023-04-20T05:27:19;102099.78;;;7.72;58.89
51289;BME280;37372;52.294;5.152;2023-04-20T05:29:46;102106.16;;;7.64;58.10
51289;BME280;37372;52.294;5.152;2023-04-20T05:32:11;102105.63;;;7.69;58.10
51289;BME280;37372;52.294;5.152;2023-04-20T05:34:37;102107.84;;;7.65;59.11
51289;BME280;37372;52.294;5.152;2023-04-20T05:37:03;102106.16;;;7.64;59.06
51289;BME280;37372;52.294;5.152;2023-04-20T05:39:31;102105.13;;;7.65;59.30
51289;BME280;37372;52.294;5.152;2023-04-20T05:41:56;102108.69;;;7.66;59.34
51289;BME280;37372;52.294;5.152;2023-04-20T05:44:25;102108.22;;;7.62;60.11
51289;BME280;37372;52.294;5.152;2023-04-20T05:46:51;102107.56;;;7.60;59.97
51289;BME280;37372;52.294;5.152;2023-04-20T05:49:16;102104.47;;;7.63;60.23
51289;BME280;37372;52.294;5.152;2023-04-20T05:51:42;102111.69;;;7.56;61.45
51289;BME280;37372;52.294;5.152;2023-04-20T05:54:08;102107.72;;;7.58;61.28
51289;BME280;37372;52.294;5.152;2023-04-20T05:56:34;102106.41;;;7.54;59.71
51289;BME280;37372;52.294;5.152;2023-04-20T05:59:00;102113.75;;;7.54;60.36
51289;BME280;37372;52.294;5.152;2023-04-20T06:01:27;102103.88;;;7.45;60.45
51289;BME280;37372;52.294;5.152;2023-04-20T06:04:02;102103.69;;;7.54;60.10
51289;BME280;37372;52.294;5.152;2023-04-20T06:06:31;102107.66;;;7.44;60.96
51289;BME280;37372;52.294;5.152;2023-04-20T06:09:03;102105.59;;;7.46;61.96
51289;BME280;37372;52.294;5.152;2023-04-20T06:11:32;102113.81;;;7.38;62.05
51289;BME280;37372;52.294;5.152;2023-04-20T06:14:01;102107.00;;;7.33;62.73
51289;BME280;37372;52.294;5.152;2023-04-20T06:16:30;102109.41;;;7.37;62.21
51289;BME280;37372;52.294;5.152;2023-04-20T06:19:02;102104.47;;;7.32;62.75
51289;BME280;37372;52.294;5.152;2023-04-20T06:21:32;102105.69;;;7.29;62.73
51289;BME280;37372;52.294;5.152;2023-04-20T06:24:04;102098.41;;;7.22;62.82
51289;BME280;37372;52.294;5.152;2023-04-20T06:26:30;102096.91;;;7.11;62.76
51289;BME280;37372;52.294;5.152;2023-04-20T06:28:57;102099.81;;;7.10;63.36
51289;BME280;37372;52.294;5.152;2023-04-20T06:31:22;102099.63;;;7.11;62.71
51289;BME280;37372;52.294;5.152;2023-04-20T06:33:50;102080.53;;;7.11;62.92
51289;BME280;37372;52.294;5.152;2023-04-20T06:36:19;102079.53;;;7.04;61.83
51289;BME280;37372;52.294;5.152;2023-04-20T06:38:49;102067.22;;;7.16;62.89
51289;BME280;37372;52.294;5.152;2023-04-20T06:41:16;102071.94;;;7.22;62.61
51289;BME280;37372;52.294;5.152;2023-04-20T06:43:51;102080.81;;;7.24;61.71
51289;BME280;37372;52.294;5.152;2023-04-20T06:46:16;102084.75;;;7.14;63.15
51289;BME280;37372;52.294;5.152;2023-04-20T06:48:43;102096.06;;;7.11;62.76
51289;BME280;37372;52.294;5.152;2023-04-20T06:51:11;102083.97;;;7.05;61.74
51289;BME280;37372;52.294;5.152;2023-04-20T06:53:37;102098.13;;;7.09;63.34
51289;BME280;37372;52.294;5.152;2023-04-20T06:56:06;102091.78;;;7.08;63.26
51289;BME280;37372;52.294;5.152;2023-04-20T06:58:32;102089.38;;;7.13;62.54
51289;BME280;37372;52.294;5.152;2023-04-20T07:00:57;102086.69;;;7.05;61.68
51289;BME280;37372;52.294;5.152;2023-04-20T07:03:23;102085.31;;;7.09;62.02
51289;BME280;37372;52.294;5.152;2023-04-20T07:05:49;102086.03;;;7.03;65.56
51289;BME280;37372;52.294;5.152;2023-04-20T07:08:15;102091.72;;;6.85;65.08
51289;BME280;37372;52.294;5.152;2023-04-20T07:10:44;102083.28;;;6.64;66.30
51289;BME280;37372;52.294;5.152;2023-04-20T07:13:14;102083.25;;;6.56;67.60
51289;BME280;37372;52.294;5.152;2023-04-20T07:15:40;102091.97;;;6.43;68.93
51289;BME280;37372;52.294;5.152;2023-04-20T07:18:08;102078.41;;;6.27;70.01
51289;BME280;37372;52.294;5.152;2023-04-20T07:20:33;102099.50;;;6.16;73.53
51289;BME280;37372;52.294;5.152;2023-04-20T07:22:58;102089.97;;;5.96;73.44
51289;BME280;37372;52.294;5.152;2023-04-20T07:25:24;102091.47;;;5.90;74.21
51289;BME280;37372;52.294;5.152;2023-04-20T07:27:50;102091.66;;;5.89;76.09
51289;BME280;37372;52.294;5.152;2023-04-20T07:30:21;102092.69;;;5.88;76.24
51289;BME280;37372;52.294;5.152;2023-04-20T07:32:48;102105.09;;;5.90;77.08
51289;BME280;37372;52.294;5.152;2023-04-20T07:35:13;102103.03;;;5.84;75.97
51289;BME280;37372;52.294;5.152;2023-04-20T07:37:38;102101.69;;;5.80;76.57
51289;BME280;37372;52.294;5.152;2023-04-20T07:40:05;102101.69;;;5.80;77.35
51289;BME280;37372;52.294;5.152;2023-04-20T07:42:32;102092.16;;;5.76;76.31
51289;BME280;37372;52.294;5.152;2023-04-20T07:44:58;102085.50;;;5.70;77.27
51289;BME280;37372;52.294;5.152;2023-04-20T07:47:23;102102.72;;;5.87;77.30
51289;BME280;37372;52.294;5.152;2023-04-20T07:49:49;102086.72;;;5.76;76.54
51289;BME280;37372;52.294;5.152;2023-04-20T07:52:17;102085.69;;;5.85;79.21
51289;BME280;37372;52.294;5.152;2023-04-20T07:54:44;102089.63;;;5.91;80.32
51289;BME280;37372;52.294;5.152;2023-04-20T07:57:09;102087.56;;;5.85;77.76
51289;BME280;37372;52.294;5.152;2023-04-20T07:59:35;102092.81;;;5.78;79.32
51289;BME280;37372;52.294;5.152;2023-04-20T08:02:02;102091.63;;;5.72;79.90
51289;BME280;37372;52.294;5.152;2023-04-20T08:04:28;102097.72;;;5.58;79.81
51289;BME280;37372;52.294;5.152;2023-04-20T08:06:53;102094.69;;;5.61;80.57
51289;BME280;37372;52.294;5.152;2023-04-20T08:09:29;102095.00;;;5.58;81.10
51289;BME280;37372;52.294;5.152;2023-04-20T08:11:55;102094.88;;;5.68;82.52
51289;BME280;37372;52.294;5.152;2023-04-20T08:14:30;102096.94;;;5.74;81.88
51289;BME280;37372;52.294;5.152;2023-04-20T08:16:58;102094.03;;;5.67;81.97
51289;BME280;37372;52.294;5.152;2023-04-20T08:19:30;102079.19;;;5.54;81.88
51289;BME280;37372;52.294;5.152;2023-04-20T08:21:55;102072.69;;;5.38;82.02
51289;BME280;37372;52.294;5.152;2023-04-20T08:24:27;102071.53;;;5.41;83.21
51289;BME280;37372;52.294;5.152;2023-04-20T08:26:53;102054.84;;;5.44;82.68
51289;BME280;37372;52.294;5.152;2023-04-20T08:29:19;102058.28;;;5.54;83.29
51289;BME280;37372;52.294;5.152;2023-04-20T08:32:00;102055.22;;;5.65;82.56
51289;BME280;37372;52.294;5.152;2023-04-20T08:34:37;102044.84;;;5.77;82.14
51289;BME280;37372;52.294;5.152;2023-04-20T08:37:03;102061.69;;;5.81;82.81
51289;BME280;37372;52.294;5.152;2023-04-20T08:39:36;102058.63;;;5.84;81.54
51289;BME280;37372;52.294;5.152;2023-04-20T08:42:04;102063.09;;;6.01;82.13
51289;BME280;37372;52.294;5.152;2023-04-20T08:44:31;102066.00;;;6.00;82.23
51289;BME280;37372;52.294;5.152;2023-04-20T08:47:02;102069.41;;;5.93;81.05
51289;BME280;37372;52.294;5.152;2023-04-20T08:49:43;102069.03;;;5.88;81.23
51289;BME280;37372;52.294;5.152;2023-04-20T08:52:12;102064.59;;;5.87;80.72
51289;BME280;37372;52.294;5.152;2023-04-20T08:54:37;102073.47;;;6.06;81.19
51289;BME280;37372;52.294;5.152;2023-04-20T08:57:06;102058.31;;;6.11;81.67
51289;BME280;37372;52.294;5.152;2023-04-20T08:59:42;102070.22;;;6.27;80.95
51289;BME280;37372;52.294;5.152;2023-04-20T09:02:10;102054.06;;;6.09;78.86
51289;BME280;37372;52.294;5.152;2023-04-20T09:04:39;102050.66;;;6.15;78.21
51289;BME280;37372;52.294;5.152;2023-04-20T09:07:06;102042.13;;;6.26;79.94
51289;BME280;37372;52.294;5.152;2023-04-20T09:09:35;102046.66;;;6.50;77.37
51289;BME280;37372;52.294;5.152;2023-04-20T09:12:05;102051.75;;;6.53;79.86
51289;BME280;37372;52.294;5.152;2023-04-20T09:14:43;102046.69;;;6.34;76.76
51289;BME280;37372;52.294;5.152;2023-04-20T09:17:09;102039.34;;;6.42;76.57
51289;BME280;37372;52.294;5.152;2023-04-20T09:19:39;102041.75;;;6.45;78.02
51289;BME280;37372;52.294;5.152;2023-04-20T09:22:04;102044.91;;;6.65;77.91
51289;BME280;37372;52.294;5.152;2023-04-20T09:24:38;102044.94;;;6.57;77.25
51289;BME280;37372;52.294;5.152;2023-04-20T09:27:18;102042.88;;;6.59;77.26
51289;BME280;37372;52.294;5.152;2023-04-20T09:30:04;102040.88;;;6.45;75.96
51289;BME280;37372;52.294;5.152;2023-04-20T09:32:29;102040.06;;;6.84;75.96
51289;BME280;37372;52.294;5.152;2023-04-20T09:35:32;102039.19;;;6.91;74.51
51289;BME280;37372;52.294;5.152;2023-04-20T09:38:01;102034.69;;;7.60;73.43
51289;BME280;37372;52.294;5.152;2023-04-20T09:40:27;102030.69;;;7.40;73.67
51289;BME280;37372;52.294;5.152;2023-04-20T09:42:53;102032.78;;;7.38;75.73
51289;BME280;37372;52.294;5.152;2023-04-20T09:45:20;102033.22;;;7.50;74.58
51289;BME280;37372;52.294;5.152;2023-04-20T09:47:48;102036.13;;;7.71;73.88
51289;BME280;37372;52.294;5.152;2023-04-20T09:50:15;102041.66;;;7.63;71.88
51289;BME280;37372;52.294;5.152;2023-04-20T09:52:41;102037.94;;;7.56;74.70
51289;BME280;37372;52.294;5.152;2023-04-20T09:55:09;102035.50;;;7.84;73.86
51289;BME280;37372;52.294;5.152;2023-04-20T09:57:35;102038.25;;;7.07;73.41
51289;BME280;37372;52.294;5.152;2023-04-20T10:00:01;102024.91;;;7.43;74.93
51289;BME280;37372;52.294;5.152;2023-04-20T10:02:30;102022.69;;;7.16;73.88
51289;BME280;37372;52.294;5.152;2023-04-20T10:04:57;102015.66;;;7.21;74.31
51289;BME280;37372;52.294;5.152;2023-04-20T10:07:28;102017.16;;;7.55;72.46
51289;BME280;37372;52.294;5.152;2023-04-20T10:10:07;102008.97;;;7.93;72.63
51289;BME280;37372;52.294;5.152;2023-04-20T10:12:46;102007.22;;;8.14;71.71
51289;BME280;37372;52.294;5.152;2023-04-20T10:15:11;102005.09;;;8.39;70.10
51289;BME280;37372;52.294;5.152;2023-04-20T10:17:37;101996.91;;;8.54;68.36
51289;BME280;37372;52.294;5.152;2023-04-20T10:20:03;101992.91;;;8.27;72.24
51289;BME280;37372;52.294;5.152;2023-04-20T10:22:30;101990.91;;;8.21;68.54
51289;BME280;37372;52.294;5.152;2023-04-20T10:25:13;101991.59;;;7.85;70.10
51289;BME280;37372;52.294;5.152;2023-04-20T10:27:52;101993.53;;;8.00;70.62
51289;BME280;37372;52.294;5.152;2023-04-20T10:30:18;101995.88;;;8.03;70.62
51289;BME280;37372;52.294;5.152;2023-04-20T10:32:43;101988.53;;;8.03;70.33
51289;BME280;37372;52.294;5.152;2023-04-20T10:35:10;101984.69;;;8.27;69.95
51289;BME280;37372;52.294;5.152;2023-04-20T10:37:48;101981.75;;;7.99;69.06
51289;BME280;37372;52.294;5.152;2023-04-20T10:40:14;101990.00;;;8.44;68.51
51289;BME280;37372;52.294;5.152;2023-04-20T10:42:43;101983.00;;;8.85;68.53
51289;BME280;37372;52.294;5.152;2023-04-20T10:45:09;101978.59;;;8.70;67.24
51289;BME280;37372;52.294;5.152;2023-04-20T10:47:37;101973.53;;;9.03;67.17
51289;BME280;37372;52.294;5.152;2023-04-20T10:50:15;101973.19;;;8.91;67.38
51289;BME280;37372;52.294;5.152;2023-04-20T10:52:43;101972.81;;;8.79;67.83
51289;BME280;37372;52.294;5.152;2023-04-20T10:55:25;101983.75;;;8.79;66.72
51289;BME280;37372;52.294;5.152;2023-04-20T10:57:51;101976.81;;;8.47;66.97
51289;BME280;37372;52.294;5.152;2023-04-20T11:00:18;101974.56;;;8.51;66.14
51289;BME280;37372;52.294;5.152;2023-04-20T11:03:10;101967.97;;;8.96;66.18
51289;BME280;37372;52.294;5.152;2023-04-20T11:05:40;101957.47;;;8.63;67.38
51289;BME280;37372;52.294;5.152;2023-04-20T11:08:09;101953.41;;;8.59;66.49
51289;BME280;37372;52.294;5.152;2023-04-20T11:10:39;101957.66;;;8.77;68.67
51289;BME280;37372;52.294;5.152;2023-04-20T11:13:20;101953.78;;;8.71;66.61
51289;BME280;37372;52.294;5.152;2023-04-20T11:15:49;101954.78;;;9.21;67.44
51289;BME280;37372;52.294;5.152;2023-04-20T11:18:16;101946.75;;;9.19;62.83
51289;BME280;37372;52.294;5.152;2023-04-20T11:20:55;101938.13;;;9.44;65.03
51289;BME280;37372;52.294;5.152;2023-04-20T11:23:22;101938.22;;;9.29;64.43
51289;BME280;37372;52.294;5.152;2023-04-20T11:25:54;101937.19;;;9.09;64.75
51289;BME280;37372;52.294;5.152;2023-04-20T11:28:23;101936.00;;;9.18;63.96
51289;BME280;37372;52.294;5.152;2023-04-20T11:31:01;101929.75;;;8.88;65.05
51289;BME280;37372;52.294;5.152;2023-04-20T11:33:31;101929.69;;;8.81;66.23
51289;BME280;37372;52.294;5.152;2023-04-20T11:36:01;101927.13;;;9.16;65.33
51289;BME280;37372;52.294;5.152;2023-04-20T11:38:32;101921.06;;;9.20;65.09
51289;BME280;37372;52.294;5.152;2023-04-20T11:41:02;101913.56;;;9.50;64.92
51289;BME280;37372;52.294;5.152;2023-04-20T11:43:32;101911.75;;;9.15;62.97
51289;BME280;37372;52.294;5.152;2023-04-20T11:46:11;101907.84;;;9.24;64.68
51289;BME280;37372;52.294;5.152;2023-04-20T11:48:45;101910.81;;;9.50;64.37
51289;BME280;37372;52.294;5.152;2023-04-20T11:51:13;101909.66;;;9.38;65.37
51289;BME280;37372;52.294;5.152;2023-04-20T11:53:39;101907.88;;;9.52;62.18
51289;BME280;37372;52.294;5.152;2023-04-20T11:56:06;101912.28;;;9.74;61.83
51289;BME280;37372;52.294;5.152;2023-04-20T11:58:33;101907.97;;;9.65;62.10
51289;BME280;37372;52.294;5.152;2023-04-20T12:01:01;101898.63;;;9.81;60.35
51289;BME280;37372;52.294;5.152;2023-04-20T12:03:26;101898.06;;;9.92;58.28
51289;BME280;37372;52.294;5.152;2023-04-20T12:05:52;101903.41;;;9.72;58.86
51289;BME280;37372;52.294;5.152;2023-04-20T12:08:17;101891.44;;;9.80;60.11
51289;BME280;37372;52.294;5.152;2023-04-20T12:10:43;101905.34;;;9.78;59.62
51289;BME280;37372;52.294;5.152;2023-04-20T12:13:09;101900.13;;;10.18;59.56
51289;BME280;37372;52.294;5.152;2023-04-20T12:15:35;101901.53;;;10.42;58.99
51289;BME280;37372;52.294;5.152;2023-04-20T12:18:00;101890.91;;;9.98;61.55
51289;BME280;37372;52.294;5.152;2023-04-20T12:20:26;101898.06;;;9.92;60.64
51289;BME280;37372;52.294;5.152;2023-04-20T12:22:51;101896.59;;;9.62;61.83
51289;BME280;37372;52.294;5.152;2023-04-20T12:25:18;101895.41;;;9.21;62.04
51289;BME280;37372;52.294;5.152;2023-04-20T12:27:43;101889.38;;;9.33;62.06
51289;BME280;37372;52.294;5.152;2023-04-20T12:30:09;101893.69;;;9.42;60.85
51289;BME280;37372;52.294;5.152;2023-04-20T12:32:35;101890.19;;;9.83;60.85
51289;BME280;37372;52.294;5.152;2023-04-20T12:35:04;101885.09;;;9.73;60.30
51289;BME280;37372;52.294;5.152;2023-04-20T12:37:30;101889.59;;;9.87;60.50
51289;BME280;37372;52.294;5.152;2023-04-20T12:40:21;101892.16;;;9.61;60.55
51289;BME280;37372;52.294;5.152;2023-04-20T12:42:46;101883.59;;;10.05;60.94
51289;BME280;37372;52.294;5.152;2023-04-20T12:45:23;101887.56;;;10.30;57.93
51289;BME280;37372;52.294;5.152;2023-04-20T12:47:48;101885.25;;;10.34;56.62
51289;BME280;37372;52.294;5.152;2023-04-20T12:50:26;101883.47;;;10.20;58.17
51289;BME280;37372;52.294;5.152;2023-04-20T12:52:52;101882.13;;;10.37;59.71
51289;BME280;37372;52.294;5.152;2023-04-20T12:55:25;101880.50;;;10.21;58.46
51289;BME280;37372;52.294;5.152;2023-04-20T12:57:51;101876.56;;;9.96;57.89
51289;BME280;37372;52.294;5.152;2023-04-20T13:00:23;101876.88;;;9.73;59.92
51289;BME280;37372;52.294;5.152;2023-04-20T13:02:49;101877.34;;;9.83;58.17
51289;BME280;37372;52.294;5.152;2023-04-20T13:05:25;101869.03;;;9.70;58.59